createdAt,value
2018-07-15T00:00:17.832Z,95741.00
2018-07-15T00:00:49.849Z,95736.00
2018-07-15T00:01:21.883Z,95738.00
2018-07-15T00:01:53.894Z,95736.00
2018-07-15T00:02:25.910Z,95739.00
2018-07-15T00:02:57.983Z,95733.00
2018-07-15T00:03:30.032Z,95738.00
2018-07-15T00:04:02.055Z,95737.00
2018-07-15T00:04:34.092Z,95738.00
2018-07-15T00:05:06.085Z,95739.00
2018-07-15T00:05:38.128Z,95739.00
2018-07-15T00:06:10.164Z,95740.00
2018-07-15T00:06:42.198Z,95743.00
2018-07-15T00:07:14.205Z,95742.00
2018-07-15T00:07:46.211Z,95742.00
2018-07-15T00:08:18.228Z,95744.00
2018-07-15T00:08:50.268Z,95744.00
2018-07-15T00:09:22.278Z,95745.00
2018-07-15T00:09:54.293Z,95742.00
2018-07-15T00:10:26.310Z,95743.00
2018-07-15T00:10:58.322Z,95745.00
2018-07-15T00:11:30.331Z,95741.00
2018-07-15T00:12:02.361Z,95741.00
2018-07-15T00:12:34.673Z,95740.00
2018-07-15T00:13:06.672Z,95741.00
2018-07-15T00:13:38.715Z,95733.00
2018-07-15T00:14:10.756Z,95736.00
2018-07-15T00:14:42.774Z,95736.00
2018-07-15T00:15:14.779Z,95736.00
2018-07-15T00:15:46.829Z,95733.00
2018-07-15T00:16:18.863Z,95735.00
2018-07-15T00:16:50.881Z,95734.00
2018-07-15T00:17:22.903Z,95735.00
2018-07-15T00:17:54.911Z,95738.00
2018-07-15T00:18:26.940Z,95733.00
2018-07-15T00:18:58.966Z,95732.00
2018-07-15T00:19:30.977Z,95729.00
2018-07-15T00:20:02.989Z,95732.00
2018-07-15T00:20:35.009Z,95733.00
2018-07-15T00:21:07.036Z,95729.00
2018-07-15T00:21:39.046Z,95729.00
2018-07-15T00:22:11.055Z,95732.00
2018-07-15T00:22:43.118Z,95729.00
2018-07-15T00:23:15.126Z,95728.00
2018-07-15T00:23:47.151Z,95730.00
2018-07-15T00:24:19.155Z,95729.00
2018-07-15T00:24:51.164Z,95730.00
2018-07-15T00:25:23.182Z,95729.00
2018-07-15T00:25:55.192Z,95730.00
2018-07-15T00:26:27.216Z,95729.00
2018-07-15T00:26:59.225Z,95731.00
2018-07-15T00:27:31.232Z,95729.00
2018-07-15T00:28:03.286Z,95730.00
2018-07-15T00:28:35.299Z,95726.00
2018-07-15T00:29:07.320Z,95735.00
2018-07-15T00:29:39.347Z,95730.00
2018-07-15T00:30:11.372Z,95730.00
2018-07-15T00:30:43.399Z,95731.00
2018-07-15T00:31:15.417Z,95731.00
2018-07-15T00:31:47.458Z,95735.00
2018-07-15T00:32:19.481Z,95737.00
2018-07-15T00:32:51.511Z,95735.00
2018-07-15T00:33:23.525Z,95735.00
2018-07-15T00:33:55.543Z,95740.00
2018-07-15T00:34:27.561Z,95738.00
2018-07-15T00:34:59.576Z,95740.00
2018-07-15T00:35:31.620Z,95746.00
2018-07-15T00:36:03.632Z,95737.00
2018-07-15T00:36:35.649Z,95741.00
2018-07-15T00:37:07.667Z,95743.00
2018-07-15T00:37:39.679Z,95739.00
2018-07-15T00:38:11.695Z,95738.00
2018-07-15T00:38:43.750Z,95744.00
2018-07-15T00:39:15.763Z,95745.00
2018-07-15T00:39:47.831Z,95741.00
2018-07-15T00:40:19.834Z,95741.00
2018-07-15T00:40:51.863Z,95740.00
2018-07-15T00:41:23.872Z,95734.00
2018-07-15T00:41:55.883Z,95735.00
2018-07-15T00:42:27.897Z,95732.00
2018-07-15T00:42:59.910Z,95732.00
2018-07-15T00:43:31.931Z,95729.00
2018-07-15T00:44:03.950Z,95731.00
2018-07-15T00:44:35.958Z,95730.00
2018-07-15T00:45:07.994Z,95731.00
2018-07-15T00:45:40.039Z,95728.00
2018-07-15T00:46:12.051Z,95728.00
2018-07-15T00:46:44.070Z,95732.00
2018-07-15T00:47:16.083Z,95729.00
2018-07-15T00:47:48.122Z,95728.00
2018-07-15T00:48:20.123Z,95732.00
2018-07-15T00:48:52.138Z,95732.00
2018-07-15T00:49:24.158Z,95731.00
2018-07-15T00:49:56.183Z,95735.00
2018-07-15T00:50:28.200Z,95733.00
2018-07-15T00:51:00.214Z,95734.00
2018-07-15T00:51:32.258Z,95738.00
2018-07-15T00:52:04.248Z,95733.00
2018-07-15T00:52:36.268Z,95733.00
2018-07-15T00:53:08.292Z,95731.00
2018-07-15T00:53:40.294Z,95730.00
2018-07-15T00:54:12.315Z,95731.00
2018-07-15T00:54:44.316Z,95729.00
2018-07-15T00:55:16.359Z,95730.00
2018-07-15T00:55:48.383Z,95729.00
2018-07-15T00:56:20.387Z,95727.00
2018-07-15T00:56:52.407Z,95727.00
2018-07-15T00:57:24.422Z,95724.00
2018-07-15T00:57:56.430Z,95729.00
2018-07-15T00:58:28.447Z,95726.00
2018-07-15T00:59:00.461Z,95730.00
2018-07-15T00:59:32.471Z,95728.00
2018-07-15T01:00:04.498Z,95728.00
2018-07-15T01:00:36.509Z,95728.00
2018-07-15T01:01:08.547Z,95730.00
2018-07-15T01:01:40.560Z,95727.00
2018-07-15T01:02:12.595Z,95727.00
2018-07-15T01:02:44.622Z,95730.00
2018-07-15T01:03:16.635Z,95728.00
2018-07-15T01:03:48.667Z,95730.00
2018-07-15T01:04:20.690Z,95730.00
2018-07-15T01:04:52.713Z,95727.00
2018-07-15T01:05:24.734Z,95728.00
2018-07-15T01:05:57.006Z,95725.00
2018-07-15T01:06:29.022Z,95725.00
2018-07-15T01:07:01.054Z,95727.00
2018-07-15T01:07:33.067Z,95730.00
2018-07-15T01:08:05.082Z,95724.00
2018-07-15T01:08:37.146Z,95723.00
2018-07-15T01:09:09.163Z,95724.00
2018-07-15T01:09:41.187Z,95727.00
2018-07-15T01:10:13.207Z,95723.00
2018-07-15T01:10:45.223Z,95729.00
2018-07-15T01:11:17.241Z,95727.00
2018-07-15T01:11:49.263Z,95727.00
2018-07-15T01:12:21.276Z,95723.00
2018-07-15T01:12:53.346Z,95723.00
2018-07-15T01:13:25.383Z,95726.00
2018-07-15T01:13:57.441Z,95726.00
2018-07-15T01:14:29.458Z,95726.00
2018-07-15T01:15:01.458Z,95727.00
2018-07-15T01:15:33.487Z,95725.00
2018-07-15T01:16:05.500Z,95725.00
2018-07-15T01:16:37.530Z,95725.00
2018-07-15T01:17:09.563Z,95723.00
2018-07-15T01:17:41.588Z,95721.00
2018-07-15T01:18:13.610Z,95721.00
2018-07-15T01:18:45.630Z,95720.00
2018-07-15T01:19:17.655Z,95721.00
2018-07-15T01:19:49.703Z,95719.00
2018-07-15T01:20:21.771Z,95718.00
2018-07-15T01:20:53.731Z,95720.00
2018-07-15T01:21:25.738Z,95720.00
2018-07-15T01:21:57.782Z,95720.00
2018-07-15T01:22:29.793Z,95723.00
2018-07-15T01:23:01.842Z,95723.00
2018-07-15T01:23:33.863Z,95723.00
2018-07-15T01:24:05.885Z,95724.00
2018-07-15T01:24:37.914Z,95724.00
2018-07-15T01:25:09.921Z,95725.00
2018-07-15T01:25:41.988Z,95728.00
2018-07-15T01:26:14.025Z,95728.00
2018-07-15T01:26:46.037Z,95729.00
2018-07-15T01:27:18.072Z,95727.00
2018-07-15T01:27:50.078Z,95728.00
2018-07-15T01:28:22.086Z,95727.00
2018-07-15T01:28:54.103Z,95729.00
2018-07-15T01:29:26.120Z,95727.00
2018-07-15T01:29:58.143Z,95728.00
2018-07-15T01:30:30.175Z,95722.00
2018-07-15T01:31:02.192Z,95727.00
2018-07-15T01:31:34.211Z,95723.00
2018-07-15T01:32:06.224Z,95725.00
2018-07-15T01:32:38.240Z,95726.00
2018-07-15T01:33:10.257Z,95725.00
2018-07-15T01:33:42.285Z,95726.00
2018-07-15T01:34:14.322Z,95724.00
2018-07-15T01:34:46.311Z,95723.00
2018-07-15T01:35:18.402Z,95720.00
2018-07-15T01:35:50.419Z,95722.00
2018-07-15T01:36:22.430Z,95722.00
2018-07-15T01:36:54.456Z,95720.00
2018-07-15T01:37:26.471Z,95720.00
2018-07-15T01:37:58.504Z,95723.00
2018-07-15T01:38:30.547Z,95723.00
2018-07-15T01:39:02.554Z,95722.00
2018-07-15T01:39:34.567Z,95721.00
2018-07-15T01:40:06.588Z,95718.00
2018-07-15T01:40:38.598Z,95721.00
2018-07-15T01:41:10.625Z,95720.00
2018-07-15T01:41:42.622Z,95718.00
2018-07-15T01:42:14.666Z,95719.00
2018-07-15T01:42:46.677Z,95718.00
2018-07-15T01:43:18.690Z,95717.00
2018-07-15T01:43:50.708Z,95719.00
2018-07-15T01:44:22.712Z,95716.00
2018-07-15T01:44:54.737Z,95717.00
2018-07-15T01:45:26.755Z,95717.00
2018-07-15T01:45:58.850Z,95720.00
2018-07-15T01:46:30.894Z,95727.00
2018-07-15T01:47:02.945Z,95724.00
2018-07-15T01:47:34.960Z,95720.00
2018-07-15T01:48:06.987Z,95719.00
2018-07-15T01:48:39.004Z,95715.00
2018-07-15T01:49:11.016Z,95717.00
2018-07-15T01:49:43.026Z,95716.00
2018-07-15T01:50:15.107Z,95716.00
2018-07-15T01:50:47.167Z,95715.00
2018-07-15T01:51:19.177Z,95713.00
2018-07-15T01:51:51.203Z,95714.00
2018-07-15T01:52:23.229Z,95711.00
2018-07-15T01:52:55.254Z,95713.00
2018-07-15T01:53:27.281Z,95713.00
2018-07-15T01:53:59.310Z,95717.00
2018-07-15T01:54:31.325Z,95717.00
2018-07-15T01:55:03.374Z,95718.00
2018-07-15T01:55:35.391Z,95719.00
2018-07-15T01:56:07.412Z,95714.00
2018-07-15T01:56:39.442Z,95712.00
2018-07-15T01:57:11.465Z,95710.00
2018-07-15T01:57:43.485Z,95713.00
2018-07-15T01:58:15.494Z,95714.00
2018-07-15T01:58:47.521Z,95713.00
2018-07-15T01:59:19.526Z,95712.00
2018-07-15T01:59:51.535Z,95708.00
2018-07-15T02:00:23.554Z,95711.00
2018-07-15T02:00:55.571Z,95711.00
2018-07-15T02:01:27.615Z,95714.00
2018-07-15T02:01:59.872Z,95711.00
2018-07-15T02:02:31.894Z,95709.00
2018-07-15T02:03:03.924Z,95708.00
2018-07-15T02:03:35.957Z,95709.00
2018-07-15T02:04:07.969Z,95711.00
2018-07-15T02:04:40.061Z,95712.00
2018-07-15T02:05:12.053Z,95710.00
2018-07-15T02:05:44.082Z,95712.00
2018-07-15T02:06:16.102Z,95711.00
2018-07-15T02:06:48.125Z,95708.00
2018-07-15T02:07:20.131Z,95709.00
2018-07-15T02:07:52.158Z,95711.00
2018-07-15T02:08:24.181Z,95714.00
2018-07-15T02:08:56.194Z,95713.00
2018-07-15T02:09:28.237Z,95708.00
2018-07-15T02:10:00.272Z,95707.00
2018-07-15T02:10:32.259Z,95710.00
2018-07-15T02:11:04.277Z,95709.00
2018-07-15T02:11:36.292Z,95705.00
2018-07-15T02:12:08.319Z,95705.00
2018-07-15T02:12:40.362Z,95707.00
2018-07-15T02:13:12.378Z,95706.00
2018-07-15T02:13:44.421Z,95705.00
2018-07-15T02:14:16.426Z,95709.00
2018-07-15T02:14:48.482Z,95709.00
2018-07-15T02:15:20.503Z,95703.00
2018-07-15T02:15:52.511Z,95701.00
2018-07-15T02:16:24.524Z,95705.00
2018-07-15T02:16:56.548Z,95705.00
2018-07-15T02:17:28.577Z,95705.00
2018-07-15T02:18:00.656Z,95703.00
2018-07-15T02:18:32.656Z,95699.00
2018-07-15T02:19:04.675Z,95699.00
2018-07-15T02:19:36.682Z,95697.00
2018-07-15T02:20:08.701Z,95697.00
2018-07-15T02:20:40.712Z,95697.00
2018-07-15T02:21:12.738Z,95696.00
2018-07-15T02:21:44.747Z,95698.00
2018-07-15T02:22:16.758Z,95701.00
2018-07-15T02:22:48.769Z,95698.00
2018-07-15T02:23:20.779Z,95695.00
2018-07-15T02:23:52.838Z,95692.00
2018-07-15T02:24:24.855Z,95695.00
2018-07-15T02:24:56.874Z,95694.00
2018-07-15T02:25:28.883Z,95694.00
2018-07-15T02:26:00.909Z,95693.00
2018-07-15T02:26:32.922Z,95694.00
2018-07-15T02:27:04.939Z,95693.00
2018-07-15T02:27:36.954Z,95697.00
2018-07-15T02:28:08.971Z,95696.00
2018-07-15T02:28:40.983Z,95695.00
2018-07-15T02:29:13.014Z,95698.00
2018-07-15T02:29:45.032Z,95694.00
2018-07-15T02:30:17.040Z,95694.00
2018-07-15T02:30:49.071Z,95700.00
2018-07-15T02:31:21.111Z,95693.00
2018-07-15T02:31:53.131Z,95695.00
2018-07-15T02:32:25.148Z,95697.00
2018-07-15T02:32:57.177Z,95697.00
2018-07-15T02:33:29.215Z,95693.00
2018-07-15T02:34:01.219Z,95695.00
2018-07-15T02:34:33.233Z,95697.00
2018-07-15T02:35:05.255Z,95693.00
2018-07-15T02:35:37.292Z,95694.00
2018-07-15T02:36:09.294Z,95693.00
2018-07-15T02:36:41.321Z,95695.00
2018-07-15T02:37:13.318Z,95691.00
2018-07-15T02:37:45.327Z,95691.00
2018-07-15T02:38:17.358Z,95694.00
2018-07-15T02:38:49.367Z,95691.00
2018-07-15T02:39:21.387Z,95693.00
2018-07-15T02:39:53.394Z,95691.00
2018-07-15T02:40:25.402Z,95692.00
2018-07-15T02:40:57.429Z,95692.00
2018-07-15T02:41:29.450Z,95693.00
2018-07-15T02:42:01.473Z,95694.00
2018-07-15T02:42:33.506Z,95694.00
2018-07-15T02:43:05.510Z,95688.00
2018-07-15T02:43:37.569Z,95692.00
2018-07-15T02:44:09.590Z,95692.00
2018-07-15T02:44:41.597Z,95698.00
2018-07-15T02:45:13.614Z,95696.00
2018-07-15T02:45:45.642Z,95692.00
2018-07-15T02:46:17.679Z,95693.00
2018-07-15T02:46:49.700Z,95694.00
2018-07-15T02:47:21.726Z,95697.00
2018-07-15T02:47:53.751Z,95694.00
2018-07-15T02:48:25.766Z,95694.00
2018-07-15T02:48:57.811Z,95690.00
2018-07-15T02:49:29.824Z,95690.00
2018-07-15T02:50:01.854Z,95690.00
2018-07-15T02:50:33.866Z,95691.00
2018-07-15T02:51:05.880Z,95695.00
2018-07-15T02:51:37.891Z,95693.00
2018-07-15T02:52:09.942Z,95694.00
2018-07-15T02:52:41.958Z,95691.00
2018-07-15T02:53:13.975Z,95692.00
2018-07-15T02:53:45.970Z,95694.00
2018-07-15T02:54:18.025Z,95696.00
2018-07-15T02:54:50.047Z,95697.00
2018-07-15T02:55:22.067Z,95698.00
2018-07-15T02:55:54.075Z,95692.00
2018-07-15T02:56:26.140Z,95694.00
2018-07-15T02:56:58.172Z,95701.00
2018-07-15T02:57:30.191Z,95698.00
2018-07-15T02:58:02.209Z,95698.00
2018-07-15T02:58:34.223Z,95697.00
2018-07-15T02:59:06.239Z,95699.00
2018-07-15T02:59:38.274Z,95701.00
2018-07-15T03:00:10.284Z,95702.00
2018-07-15T03:00:42.306Z,95704.00
2018-07-15T03:01:14.334Z,95701.00
2018-07-15T03:01:46.382Z,95701.00
2018-07-15T03:02:18.404Z,95703.00
2018-07-15T03:02:50.429Z,95703.00
2018-07-15T03:03:22.448Z,95699.00
2018-07-15T03:03:54.451Z,95699.00
2018-07-15T03:04:26.461Z,95699.00
2018-07-15T03:04:58.469Z,95701.00
2018-07-15T03:05:30.486Z,95700.00
2018-07-15T03:06:02.510Z,95703.00
2018-07-15T03:06:34.529Z,95703.00
2018-07-15T03:07:06.542Z,95699.00
2018-07-15T03:07:38.571Z,95701.00
2018-07-15T03:08:10.585Z,95705.00
2018-07-15T03:08:42.601Z,95698.00
2018-07-15T03:09:14.620Z,95704.00
2018-07-15T03:09:46.646Z,95701.00
2018-07-15T03:10:18.650Z,95710.00
2018-07-15T03:10:50.661Z,95706.00
2018-07-15T03:11:22.676Z,95714.00
2018-07-15T03:11:54.703Z,95710.00
2018-07-15T03:12:26.743Z,95717.00
2018-07-15T03:12:58.791Z,95715.00
2018-07-15T03:13:30.808Z,95719.00
2018-07-15T03:14:02.821Z,95718.00
2018-07-15T03:14:34.835Z,95713.00
2018-07-15T03:15:06.841Z,95720.00
2018-07-15T03:15:38.864Z,95719.00
2018-07-15T03:16:10.950Z,95717.00
2018-07-15T03:16:42.961Z,95720.00
2018-07-15T03:17:15.038Z,95719.00
2018-07-15T03:17:47.023Z,95718.00
2018-07-15T03:18:19.027Z,95713.00
2018-07-15T03:18:51.041Z,95720.00
2018-07-15T03:19:23.058Z,95721.00
2018-07-15T03:19:55.071Z,95718.00
2018-07-15T03:20:27.091Z,95713.00
2018-07-15T03:20:59.097Z,95717.00
2018-07-15T03:21:31.130Z,95716.00
2018-07-15T03:22:03.158Z,95715.00
2018-07-15T03:22:35.175Z,95716.00
2018-07-15T03:23:07.217Z,95715.00
2018-07-15T03:23:39.207Z,95715.00
2018-07-15T03:24:11.227Z,95714.00
2018-07-15T03:24:43.244Z,95711.00
2018-07-15T03:25:15.303Z,95709.00
2018-07-15T03:25:47.331Z,95711.00
2018-07-15T03:26:19.322Z,95709.00
2018-07-15T03:26:51.335Z,95710.00
2018-07-15T03:27:23.400Z,95714.00
2018-07-15T03:27:55.419Z,95710.00
2018-07-15T03:28:27.429Z,95706.00
2018-07-15T03:28:59.446Z,95710.00
2018-07-15T03:29:31.510Z,95706.00
2018-07-15T03:30:03.540Z,95711.00
2018-07-15T03:30:35.530Z,95711.00
2018-07-15T03:31:07.550Z,95696.00
2018-07-15T03:31:39.554Z,95699.00
2018-07-15T03:32:11.563Z,95697.00
2018-07-15T03:32:43.594Z,95699.00
2018-07-15T03:33:15.614Z,95702.00
2018-07-15T03:33:47.622Z,95700.00
2018-07-15T03:34:19.644Z,95695.00
2018-07-15T03:34:51.679Z,95700.00
2018-07-15T03:35:23.687Z,95699.00
2018-07-15T03:35:55.727Z,95699.00
2018-07-15T03:36:27.740Z,95698.00
2018-07-15T03:36:59.762Z,95698.00
2018-07-15T03:37:31.807Z,95694.00
2018-07-15T03:38:03.817Z,95699.00
2018-07-15T03:38:35.854Z,95697.00
2018-07-15T03:39:07.898Z,95701.00
2018-07-15T03:39:39.914Z,95708.00
2018-07-15T03:40:11.947Z,95704.00
2018-07-15T03:40:43.955Z,95706.00
2018-07-15T03:41:15.975Z,95708.00
2018-07-15T03:41:47.996Z,95711.00
2018-07-15T03:42:20.049Z,95706.00
2018-07-15T03:42:52.073Z,95708.00
2018-07-15T03:43:24.076Z,95709.00
2018-07-15T03:43:56.083Z,95714.00
2018-07-15T03:44:28.097Z,95714.00
2018-07-15T03:45:00.117Z,95719.00
2018-07-15T03:45:32.123Z,95717.00
2018-07-15T03:46:04.130Z,95714.00
2018-07-15T03:46:36.162Z,95716.00
2018-07-15T03:47:08.169Z,95716.00
2018-07-15T03:47:40.175Z,95714.00
2018-07-15T03:48:12.187Z,95719.00
2018-07-15T03:48:44.193Z,95718.00
2018-07-15T03:49:16.227Z,95718.00
2018-07-15T03:49:48.235Z,95721.00
2018-07-15T03:50:20.253Z,95721.00
2018-07-15T03:50:52.276Z,95723.00
2018-07-15T03:51:24.285Z,95725.00
2018-07-15T03:51:56.326Z,95718.00
2018-07-15T03:52:28.347Z,95719.00
2018-07-15T03:53:00.382Z,95720.00
2018-07-15T03:53:32.407Z,95722.00
2018-07-15T03:54:04.421Z,95720.00
2018-07-15T03:54:36.438Z,95721.00
2018-07-15T03:55:08.471Z,95717.00
2018-07-15T03:55:40.482Z,95715.00
2018-07-15T03:56:12.500Z,95719.00
2018-07-15T03:56:44.515Z,95719.00
2018-07-15T03:57:16.532Z,95717.00
2018-07-15T03:57:48.547Z,95719.00
2018-07-15T03:58:20.563Z,95716.00
2018-07-15T03:58:52.585Z,95718.00
2018-07-15T03:59:24.587Z,95715.00
2018-07-15T03:59:56.602Z,95720.00
2018-07-15T04:00:28.607Z,95718.00
2018-07-15T04:01:00.644Z,95722.00
2018-07-15T04:01:32.710Z,95719.00
2018-07-15T04:02:04.727Z,95722.00
2018-07-15T04:02:36.742Z,95722.00
2018-07-15T04:03:08.765Z,95718.00
2018-07-15T04:03:40.777Z,95723.00
2018-07-15T04:04:12.790Z,95723.00
2018-07-15T04:04:44.818Z,95722.00
2018-07-15T04:05:16.826Z,95723.00
2018-07-15T04:05:48.841Z,95721.00
2018-07-15T04:06:20.853Z,95722.00
2018-07-15T04:06:52.865Z,95721.00
2018-07-15T04:07:24.881Z,95723.00
2018-07-15T04:07:56.932Z,95721.00
2018-07-15T04:08:28.993Z,95714.00
2018-07-15T04:09:01.027Z,95718.00
2018-07-15T04:09:32.978Z,95715.00
2018-07-15T04:10:04.994Z,95716.00
2018-07-15T04:10:37.012Z,95714.00
2018-07-15T04:11:09.014Z,95714.00
2018-07-15T04:11:41.045Z,95713.00
2018-07-15T04:12:13.058Z,95712.00
2018-07-15T04:12:45.079Z,95708.00
2018-07-15T04:13:17.106Z,95714.00
2018-07-15T04:13:49.118Z,95707.00
2018-07-15T04:14:21.129Z,95713.00
2018-07-15T04:14:53.141Z,95708.00
2018-07-15T04:15:25.143Z,95709.00
2018-07-15T04:15:57.166Z,95713.00
2018-07-15T04:16:29.191Z,95711.00
2018-07-15T04:17:01.199Z,95710.00
2018-07-15T04:17:33.224Z,95708.00
2018-07-15T04:18:05.254Z,95707.00
2018-07-15T04:18:37.258Z,95706.00
2018-07-15T04:19:09.282Z,95706.00
2018-07-15T04:19:41.293Z,95709.00
2018-07-15T04:20:13.306Z,95706.00
2018-07-15T04:20:45.327Z,95710.00
2018-07-15T04:21:17.363Z,95712.00
2018-07-15T04:21:49.370Z,95708.00
2018-07-15T04:22:21.395Z,95707.00
2018-07-15T04:22:53.415Z,95705.00
2018-07-15T04:23:25.424Z,95709.00
2018-07-15T04:23:57.445Z,95710.00
2018-07-15T04:24:29.458Z,95705.00
2018-07-15T04:25:01.468Z,95707.00
2018-07-15T04:25:33.500Z,95708.00
2018-07-15T04:26:05.515Z,95711.00
2018-07-15T04:26:37.535Z,95709.00
2018-07-15T04:27:09.538Z,95707.00
2018-07-15T04:27:41.555Z,95711.00
2018-07-15T04:28:13.581Z,95712.00
2018-07-15T04:28:45.595Z,95712.00
2018-07-15T04:29:17.625Z,95714.00
2018-07-15T04:29:49.634Z,95716.00
2018-07-15T04:30:21.651Z,95712.00
2018-07-15T04:30:53.661Z,95714.00
2018-07-15T04:31:25.679Z,95711.00
2018-07-15T04:31:57.703Z,95711.00
2018-07-15T04:32:29.710Z,95712.00
2018-07-15T04:33:01.729Z,95713.00
2018-07-15T04:33:33.744Z,95711.00
2018-07-15T04:34:05.734Z,95706.00
2018-07-15T04:34:37.757Z,95709.00
2018-07-15T04:35:09.766Z,95707.00
2018-07-15T04:35:41.775Z,95708.00
2018-07-15T04:36:13.781Z,95707.00
2018-07-15T04:36:45.805Z,95705.00
2018-07-15T04:37:17.809Z,95714.00
2018-07-15T04:37:49.866Z,95713.00
2018-07-15T04:38:21.892Z,95718.00
2018-07-15T04:38:53.904Z,95712.00
2018-07-15T04:39:25.909Z,95717.00
2018-07-15T04:39:57.913Z,95720.00
2018-07-15T04:40:29.990Z,95718.00
2018-07-15T04:41:02.000Z,95720.00
2018-07-15T04:41:34.022Z,95721.00
2018-07-15T04:42:06.042Z,95722.00
2018-07-15T04:42:38.051Z,95721.00
2018-07-15T04:43:10.074Z,95721.00
2018-07-15T04:43:42.123Z,95724.00
2018-07-15T04:44:14.099Z,95724.00
2018-07-15T04:44:46.132Z,95726.00
2018-07-15T04:45:18.147Z,95727.00
2018-07-15T04:45:50.161Z,95728.00
2018-07-15T04:46:22.175Z,95727.00
2018-07-15T04:46:54.196Z,95729.00
2018-07-15T04:47:26.228Z,95720.00
2018-07-15T04:47:58.235Z,95725.00
2018-07-15T04:48:30.270Z,95727.00
2018-07-15T04:49:02.288Z,95726.00
2018-07-15T04:49:34.299Z,95726.00
2018-07-15T04:50:06.320Z,95728.00
2018-07-15T04:50:38.331Z,95727.00
2018-07-15T04:51:10.352Z,95724.00
2018-07-15T04:51:42.383Z,95730.00
2018-07-15T04:52:14.398Z,95730.00
2018-07-15T04:52:46.432Z,95731.00
2018-07-15T04:53:18.529Z,95732.00
2018-07-15T04:53:50.507Z,95727.00
2018-07-15T04:54:22.518Z,95728.00
2018-07-15T04:54:54.547Z,95726.00
2018-07-15T04:55:26.558Z,95726.00
2018-07-15T04:55:58.583Z,95727.00
2018-07-15T04:56:30.593Z,95727.00
2018-07-15T04:57:02.614Z,95723.00
2018-07-15T04:57:34.621Z,95722.00
2018-07-15T04:58:06.645Z,95724.00
2018-07-15T04:58:38.695Z,95722.00
2018-07-15T04:59:10.711Z,95724.00
2018-07-15T04:59:42.729Z,95721.00
2018-07-15T05:00:14.745Z,95726.00
2018-07-15T05:00:46.796Z,95725.00
2018-07-15T05:01:18.803Z,95726.00
2018-07-15T05:01:50.833Z,95728.00
2018-07-15T05:02:22.840Z,95724.00
2018-07-15T05:02:54.867Z,95723.00
2018-07-15T05:03:26.887Z,95722.00
2018-07-15T05:03:58.906Z,95720.00
2018-07-15T05:04:30.923Z,95719.00
2018-07-15T05:05:02.950Z,95723.00
2018-07-15T05:05:34.963Z,95719.00
2018-07-15T05:06:06.992Z,95724.00
2018-07-15T05:06:39.006Z,95719.00
2018-07-15T05:07:11.014Z,95723.00
2018-07-15T05:07:43.028Z,95721.00
2018-07-15T05:08:15.043Z,95720.00
2018-07-15T05:08:47.069Z,95720.00
2018-07-15T05:09:19.080Z,95721.00
2018-07-15T05:09:51.104Z,95725.00
2018-07-15T05:10:23.114Z,95724.00
2018-07-15T05:10:55.169Z,95726.00
2018-07-15T05:11:27.186Z,95725.00
2018-07-15T05:11:59.194Z,95724.00
2018-07-15T05:12:31.219Z,95726.00
2018-07-15T05:13:03.246Z,95724.00
2018-07-15T05:13:35.263Z,95726.00
2018-07-15T05:14:07.316Z,95723.00
2018-07-15T05:14:39.326Z,95723.00
2018-07-15T05:15:11.367Z,95725.00
2018-07-15T05:15:43.382Z,95723.00
2018-07-15T05:16:15.390Z,95726.00
2018-07-15T05:16:47.404Z,95723.00
2018-07-15T05:17:19.430Z,95724.00
2018-07-15T05:17:51.437Z,95722.00
2018-07-15T05:18:23.485Z,95723.00
2018-07-15T05:18:55.497Z,95722.00
2018-07-15T05:19:27.567Z,95722.00
2018-07-15T05:19:59.574Z,95722.00
2018-07-15T05:20:31.591Z,95724.00
2018-07-15T05:21:03.606Z,95723.00
2018-07-15T05:21:35.625Z,95729.00
2018-07-15T05:22:07.653Z,95725.00
2018-07-15T05:22:39.678Z,95725.00
2018-07-15T05:23:11.699Z,95726.00
2018-07-15T05:23:43.706Z,95723.00
2018-07-15T05:24:15.725Z,95727.00
2018-07-15T05:24:47.736Z,95723.00
2018-07-15T05:25:19.758Z,95726.00
2018-07-15T05:25:51.778Z,95728.00
2018-07-15T05:26:23.798Z,95729.00
2018-07-15T05:26:55.808Z,95734.00
2018-07-15T05:27:27.829Z,95726.00
2018-07-15T05:27:59.838Z,95727.00
2018-07-15T05:28:31.859Z,95730.00
2018-07-15T05:29:03.882Z,95729.00
2018-07-15T05:29:35.909Z,95727.00
2018-07-15T05:30:07.915Z,95727.00
2018-07-15T05:30:39.934Z,95727.00
2018-07-15T05:31:11.943Z,95729.00
2018-07-15T05:31:44.024Z,95726.00
2018-07-15T05:32:16.027Z,95726.00
2018-07-15T05:32:48.047Z,95731.00
2018-07-15T05:33:20.074Z,95731.00
2018-07-15T05:33:52.195Z,95727.00
2018-07-15T05:34:24.172Z,95727.00
2018-07-15T05:34:56.223Z,95727.00
2018-07-15T05:35:28.226Z,95732.00
2018-07-15T05:36:00.210Z,95727.00
2018-07-15T05:36:32.223Z,95736.00
2018-07-15T05:37:04.232Z,95729.00
2018-07-15T05:37:36.242Z,95734.00
2018-07-15T05:38:08.299Z,95732.00
2018-07-15T05:38:40.309Z,95738.00
2018-07-15T05:39:12.315Z,95730.00
2018-07-15T05:39:44.328Z,95731.00
2018-07-15T05:40:16.366Z,95733.00
2018-07-15T05:40:48.383Z,95730.00
2018-07-15T05:41:20.440Z,95730.00
2018-07-15T05:41:52.479Z,95735.00
2018-07-15T05:42:24.489Z,95732.00
2018-07-15T05:42:56.527Z,95732.00
2018-07-15T05:43:28.611Z,95735.00
2018-07-15T05:44:00.616Z,95735.00
2018-07-15T05:44:32.623Z,95734.00
2018-07-15T05:45:05.042Z,95735.00
2018-07-15T05:45:36.921Z,95736.00
2018-07-15T05:46:08.931Z,95734.00
2018-07-15T05:46:40.948Z,95732.00
2018-07-15T05:47:12.960Z,95733.00
2018-07-15T05:47:44.979Z,95734.00
2018-07-15T05:48:17.000Z,95735.00
2018-07-15T05:48:49.019Z,95730.00
2018-07-15T05:49:21.034Z,95731.00
2018-07-15T05:49:53.058Z,95732.00
2018-07-15T05:50:25.075Z,95731.00
2018-07-15T05:50:57.078Z,95730.00
2018-07-15T05:51:29.107Z,95735.00
2018-07-15T05:52:01.130Z,95735.00
2018-07-15T05:52:33.135Z,95729.00
2018-07-15T05:53:05.156Z,95731.00
2018-07-15T05:53:37.215Z,95732.00
2018-07-15T05:54:09.235Z,95735.00
2018-07-15T05:54:41.273Z,95732.00
2018-07-15T05:55:13.279Z,95733.00
2018-07-15T05:55:45.315Z,95733.00
2018-07-15T05:56:17.332Z,95738.00
2018-07-15T05:56:49.361Z,95735.00
2018-07-15T05:57:21.367Z,95736.00
2018-07-15T05:57:53.434Z,95740.00
2018-07-15T05:58:25.393Z,95738.00
2018-07-15T05:58:57.410Z,95745.00
2018-07-15T05:59:29.451Z,95741.00
2018-07-15T06:00:01.502Z,95742.00
2018-07-15T06:00:33.521Z,95742.00
2018-07-15T06:01:05.555Z,95748.00
2018-07-15T06:01:37.568Z,95746.00
2018-07-15T06:02:09.602Z,95747.00
2018-07-15T06:02:41.629Z,95749.00
2018-07-15T06:03:13.633Z,95752.00
2018-07-15T06:03:45.651Z,95751.00
2018-07-15T06:04:17.718Z,95751.00
2018-07-15T06:04:49.725Z,95751.00
2018-07-15T06:05:21.755Z,95753.00
2018-07-15T06:05:53.773Z,95756.00
2018-07-15T06:06:25.811Z,95747.00
2018-07-15T06:06:57.818Z,95755.00
2018-07-15T06:07:29.845Z,95752.00
2018-07-15T06:08:01.872Z,95753.00
2018-07-15T06:08:33.887Z,95755.00
2018-07-15T06:09:05.917Z,95751.00
2018-07-15T06:09:37.952Z,95753.00
2018-07-15T06:10:09.970Z,95753.00
2018-07-15T06:10:42.023Z,95757.00
2018-07-15T06:11:14.016Z,95762.00
2018-07-15T06:11:46.041Z,95759.00
2018-07-15T06:12:18.056Z,95758.00
2018-07-15T06:12:50.069Z,95760.00
2018-07-15T06:13:22.073Z,95762.00
2018-07-15T06:13:54.108Z,95765.00
2018-07-15T06:14:26.123Z,95761.00
2018-07-15T06:14:58.146Z,95760.00
2018-07-15T06:15:30.165Z,95763.00
2018-07-15T06:16:02.162Z,95761.00